sensor_id;sensor_type;location;lat;lon;timestamp;temperature;humidity
1476;DHT22;730;48.870;12.542;2023-03-02T00:00:37;3.80;1.00
1476;DHT22;730;48.870;12.542;2023-03-02T00:03:04;3.80;1.00
1476;DHT22;730;48.870;12.542;2023-03-02T00:05:32;3.80;1.00
1476;DHT22;730;48.870;12.542;2023-03-02T00:07:58;3.70;1.00
1476;DHT22;730;48.870;12.542;2023-03-02T00:10:25;3.70;1.00
1476;DHT22;730;48.870;12.542;2023-03-02T00:12:52;3.70;1.00
1476;DHT22;730;48.870;12.542;2023-03-02T00:15:18;3.70;1.00
1476;DHT22;730;48.870;12.542;2023-03-02T00:17:46;3.70;1.00
1476;DHT22;730;48.870;12.542;2023-03-02T00:20:12;3.80;1.00
1476;DHT22;730;48.870;12.542;2023-03-02T00:22:40;3.80;1.00
1476;DHT22;730;48.870;12.542;2023-03-02T00:25:08;3.80;1.00
1476;DHT22;730;48.870;12.542;2023-03-02T00:27:34;3.70;1.00
1476;DHT22;730;48.870;12.542;2023-03-02T00:30:04;3.70;1.00
1476;DHT22;730;48.870;12.542;2023-03-02T00:32:31;3.60;1.00
1476;DHT22;730;48.870;12.542;2023-03-02T00:34:57;3.60;1.00
1476;DHT22;730;48.870;12.542;2023-03-02T00:37:23;3.70;1.00
1476;DHT22;730;48.870;12.542;2023-03-02T00:39:51;3.70;1.00
1476;DHT22;730;48.870;12.542;2023-03-02T00:42:18;3.70;1.00
1476;DHT22;730;48.870;12.542;2023-03-02T00:44:44;3.60;1.00
1476;DHT22;730;48.870;12.542;2023-03-02T00:47:11;3.50;1.00
1476;DHT22;730;48.870;12.542;2023-03-02T00:49:37;3.60;1.00
1476;DHT22;730;48.870;12.542;2023-03-02T00:52:04;3.60;1.00
1476;DHT22;730;48.870;12.542;2023-03-02T00:54:30;3.60;1.00
1476;DHT22;730;48.870;12.542;2023-03-02T00:56:59;3.60;1.00
1476;DHT22;730;48.870;12.542;2023-03-02T00:59:25;3.60;1.00
1476;DHT22;730;48.870;12.542;2023-03-02T01:01:57;3.60;1.00
1476;DHT22;730;48.870;12.542;2023-03-02T01:04:29;3.70;1.00
1476;DHT22;730;48.870;12.542;2023-03-02T01:06:57;3.80;1.00
1476;DHT22;730;48.870;12.542;2023-03-02T01:09:23;3.80;1.00
1476;DHT22;730;48.870;12.542;2023-03-02T01:11:49;3.80;1.00
1476;DHT22;730;48.870;12.542;2023-03-02T01:14:16;3.80;1.00
1476;DHT22;730;48.870;12.542;2023-03-02T01:16:42;3.90;1.00
1476;DHT22;730;48.870;12.542;2023-03-02T01:19:08;3.90;1.00
1476;DHT22;730;48.870;12.542;2023-03-02T01:21:34;3.90;1.00
1476;DHT22;730;48.870;12.542;2023-03-02T01:24:01;3.90;1.00
1476;DHT22;730;48.870;12.542;2023-03-02T01:26:27;3.90;1.00
1476;DHT22;730;48.870;12.542;2023-03-02T01:28:53;4.00;1.00
1476;DHT22;730;48.870;12.542;2023-03-02T01:31:25;4.00;1.00
1476;DHT22;730;48.870;12.542;2023-03-02T01:33:51;4.00;1.00
1476;DHT22;730;48.870;12.542;2023-03-02T01:36:17;4.00;1.00
1476;DHT22;730;48.870;12.542;2023-03-02T01:38:43;3.90;1.00
1476;DHT22;730;48.870;12.542;2023-03-02T01:41:09;3.90;1.00
1476;DHT22;730;48.870;12.542;2023-03-02T01:43:37;3.90;1.00
1476;DHT22;730;48.870;12.542;2023-03-02T01:46:18;3.90;1.00
1476;DHT22;730;48.870;12.542;2023-03-02T01:48:51;3.90;1.00
1476;DHT22;730;48.870;12.542;2023-03-02T01:51:25;3.90;1.00
1476;DHT22;730;48.870;12.542;2023-03-02T01:53:59;3.80;1.00
1476;DHT22;730;48.870;12.542;2023-03-02T01:56:30;3.80;1.00
1476;DHT22;730;48.870;12.542;2023-03-02T01:59:03;3.80;1.00
1476;DHT22;730;48.870;12.542;2023-03-02T02:01:32;3.80;1.00
1476;DHT22;730;48.870;12.542;2023-03-02T02:03:59;3.80;1.00
1476;DHT22;730;48.870;12.542;2023-03-02T02:06:48;3.80;1.00
1476;DHT22;730;48.870;12.542;2023-03-02T02:09:18;3.90;1.00
1476;DHT22;730;48.870;12.542;2023-03-02T02:11:46;3.80;1.00
1476;DHT22;730;48.870;12.542;2023-03-02T02:14:12;3.80;1.00
1476;DHT22;730;48.870;12.542;2023-03-02T02:16:39;3.80;1.00
1476;DHT22;730;48.870;12.542;2023-03-02T02:19:23;3.80;1.00
1476;DHT22;730;48.870;12.542;2023-03-02T02:21:52;3.80;1.00
1476;DHT22;730;48.870;12.542;2023-03-02T02:24:27;3.80;1.00
1476;DHT22;730;48.870;12.542;2023-03-02T02:26:55;3.80;1.00
1476;DHT22;730;48.870;12.542;2023-03-02T02:29:37;3.70;1.00
1476;DHT22;730;48.870;12.542;2023-03-02T02:32:36;3.70;1.00
1476;DHT22;730;48.870;12.542;2023-03-02T02:35:11;3.60;1.00
1476;DHT22;730;48.870;12.542;2023-03-02T02:37:45;3.60;1.00
1476;DHT22;730;48.870;12.542;2023-03-02T02:40:19;3.40;1.00
1476;DHT22;730;48.870;12.542;2023-03-02T02:42:48;3.30;1.00
1476;DHT22;730;48.870;12.542;2023-03-02T02:45:22;3.20;1.00
1476;DHT22;730;48.870;12.542;2023-03-02T02:47:49;3.20;1.00
1476;DHT22;730;48.870;12.542;2023-03-02T02:50:23;3.20;1.00
1476;DHT22;730;48.870;12.542;2023-03-02T02:53:14;3.20;1.00
1476;DHT22;730;48.870;12.542;2023-03-02T02:55:42;3.30;1.00
1476;DHT22;730;48.870;12.542;2023-03-02T03:00:50;3.20;1.00
1476;DHT22;730;48.870;12.542;2023-03-02T03:03:31;3.20;1.00
1476;DHT22;730;48.870;12.542;2023-03-02T03:06:03;3.10;1.00
1476;DHT22;730;48.870;12.542;2023-03-02T03:11:14;3.10;1.00
1476;DHT22;730;48.870;12.542;2023-03-02T03:13:41;3.00;1.00
1476;DHT22;730;48.870;12.542;2023-03-02T03:16:10;2.90;1.00
1476;DHT22;730;48.870;12.542;2023-03-02T03:18:41;2.90;1.00
1476;DHT22;730;48.870;12.542;2023-03-02T03:21:08;2.90;1.00
1476;DHT22;730;48.870;12.542;2023-03-02T03:23:34;2.80;1.00
1476;DHT22;730;48.870;12.542;2023-03-02T03:26:05;2.90;1.00
1476;DHT22;730;48.870;12.542;2023-03-02T03:28:32;2.90;1.00
1476;DHT22;730;48.870;12.542;2023-03-02T03:30:58;3.00;1.00
1476;DHT22;730;48.870;12.542;2023-03-02T03:33:24;3.00;1.00
1476;DHT22;730;48.870;12.542;2023-03-02T03:35:50;3.00;1.00
1476;DHT22;730;48.870;12.542;2023-03-02T03:38:17;3.00;1.00
1476;DHT22;730;48.870;12.542;2023-03-02T03:40:43;3.00;1.00
1476;DHT22;730;48.870;12.542;2023-03-02T03:43:09;2.90;1.00
1476;DHT22;730;48.870;12.542;2023-03-02T03:45:37;2.90;1.00
1476;DHT22;730;48.870;12.542;2023-03-02T03:48:05;2.90;1.00
1476;DHT22;730;48.870;12.542;2023-03-02T03:50:31;2.90;1.00
1476;DHT22;730;48.870;12.542;2023-03-02T03:52:57;2.90;1.00
1476;DHT22;730;48.870;12.542;2023-03-02T03:55:23;2.90;1.00
1476;DHT22;730;48.870;12.542;2023-03-02T03:57:53;2.90;1.00
1476;DHT22;730;48.870;12.542;2023-03-02T04:00:20;3.00;1.00
1476;DHT22;730;48.870;12.542;2023-03-02T04:02:47;3.00;1.00
1476;DHT22;730;48.870;12.542;2023-03-02T04:05:13;3.00;1.00
1476;DHT22;730;48.870;12.542;2023-03-02T04:07:39;3.00;1.00
1476;DHT22;730;48.870;12.542;2023-03-02T04:10:07;3.10;1.00
1476;DHT22;730;48.870;12.542;2023-03-02T04:12:37;3.00;1.00
1476;DHT22;730;48.870;12.542;2023-03-02T04:15:05;3.10;1.00
1476;DHT22;730;48.870;12.542;2023-03-02T04:17:32;3.10;1.00
1476;DHT22;730;48.870;12.542;2023-03-02T04:19:58;3.10;1.00
1476;DHT22;730;48.870;12.542;2023-03-02T04:22:25;3.10;1.00
1476;DHT22;730;48.870;12.542;2023-03-02T04:24:52;3.00;1.00
1476;DHT22;730;48.870;12.542;2023-03-02T04:27:18;3.00;1.00
1476;DHT22;730;48.870;12.542;2023-03-02T04:29:44;3.00;1.00
1476;DHT22;730;48.870;12.542;2023-03-02T04:32:11;3.00;1.00
1476;DHT22;730;48.870;12.542;2023-03-02T04:34:39;3.00;1.00
1476;DHT22;730;48.870;12.542;2023-03-02T04:37:06;3.00;1.00
1476;DHT22;730;48.870;12.542;2023-03-02T04:39:32;3.00;1.00
1476;DHT22;730;48.870;12.542;2023-03-02T04:41:58;3.00;1.00
1476;DHT22;730;48.870;12.542;2023-03-02T04:44:24;3.00;1.00
1476;DHT22;730;48.870;12.542;2023-03-02T04:46:50;3.00;1.00
1476;DHT22;730;48.870;12.542;2023-03-02T04:49:17;3.00;1.00
1476;DHT22;730;48.870;12.542;2023-03-02T04:51:46;2.90;1.00
1476;DHT22;730;48.870;12.542;2023-03-02T04:54:24;2.90;1.00
1476;DHT22;730;48.870;12.542;2023-03-02T04:56:51;2.80;1.00
1476;DHT22;730;48.870;12.542;2023-03-02T04:59:19;2.70;1.00
1476;DHT22;730;48.870;12.542;2023-03-02T05:01:47;2.70;1.00
1476;DHT22;730;48.870;12.542;2023-03-02T05:04:13;2.70;1.00
1476;DHT22;730;48.870;12.542;2023-03-02T05:06:40;2.70;1.00
1476;DHT22;730;48.870;12.542;2023-03-02T05:09:07;2.60;1.00
1476;DHT22;730;48.870;12.542;2023-03-02T05:11:33;2.50;1.00
1476;DHT22;730;48.870;12.542;2023-03-02T05:14:02;2.50;1.00
1476;DHT22;730;48.870;12.542;2023-03-02T05:16:31;2.50;1.00
1476;DHT22;730;48.870;12.542;2023-03-02T05:18:58;2.50;1.00
1476;DHT22;730;48.870;12.542;2023-03-02T05:21:26;2.40;1.00
1476;DHT22;730;48.870;12.542;2023-03-02T05:23:52;2.30;1.00
1476;DHT22;730;48.870;12.542;2023-03-02T05:26:18;2.20;1.00
1476;DHT22;730;48.870;12.542;2023-03-02T05:28:46;2.20;1.00
1476;DHT22;730;48.870;12.542;2023-03-02T05:31:20;2.20;1.00
1476;DHT22;730;48.870;12.542;2023-03-02T05:33:48;2.30;1.00
1476;DHT22;730;48.870;12.542;2023-03-02T05:36:14;2.20;1.00
1476;DHT22;730;48.870;12.542;2023-03-02T05:38:40;2.30;1.00
1476;DHT22;730;48.870;12.542;2023-03-02T05:41:06;2.30;1.00
1476;DHT22;730;48.870;12.542;2023-03-02T05:43:33;2.30;1.00
1476;DHT22;730;48.870;12.542;2023-03-02T05:45:59;2.20;1.00
1476;DHT22;730;48.870;12.542;2023-03-02T05:48:27;2.30;1.00
1476;DHT22;730;48.870;12.542;2023-03-02T05:50:53;2.30;1.00
1476;DHT22;730;48.870;12.542;2023-03-02T05:53:19;2.40;1.00
1476;DHT22;730;48.870;12.542;2023-03-02T05:55:45;2.40;1.00
1476;DHT22;730;48.870;12.542;2023-03-02T05:58:13;2.50;1.00
1476;DHT22;730;48.870;12.542;2023-03-02T06:00:40;2.50;1.00
1476;DHT22;730;48.870;12.542;2023-03-02T06:03:08;2.60;1.00
1476;DHT22;730;48.870;12.542;2023-03-02T06:05:35;2.60;1.00
1476;DHT22;730;48.870;12.542;2023-03-02T06:08:01;2.70;1.00
1476;DHT22;730;48.870;12.542;2023-03-02T06:10:28;2.70;1.00
1476;DHT22;730;48.870;12.542;2023-03-02T06:12:54;2.80;1.00
1476;DHT22;730;48.870;12.542;2023-03-02T06:15:21;2.80;1.00
1476;DHT22;730;48.870;12.542;2023-03-02T06:17:47;2.80;1.00
1476;DHT22;730;48.870;12.542;2023-03-02T06:20:14;2.80;1.00
1476;DHT22;730;48.870;12.542;2023-03-02T06:22:44;2.90;1.00
1476;DHT22;730;48.870;12.542;2023-03-02T06:25:15;3.00;1.00
1476;DHT22;730;48.870;12.542;2023-03-02T06:27:43;3.20;1.00
1476;DHT22;730;48.870;12.542;2023-03-02T06:30:14;3.30;1.00
1476;DHT22;730;48.870;12.542;2023-03-02T06:32:41;3.40;1.00
1476;DHT22;730;48.870;12.542;2023-03-02T06:35:10;3.60;1.00
1476;DHT22;730;48.870;12.542;2023-03-02T06:37:38;3.70;1.00
1476;DHT22;730;48.870;12.542;2023-03-02T06:40:05;3.90;1.00
1476;DHT22;730;48.870;12.542;2023-03-02T06:42:33;4.00;1.00
1476;DHT22;730;48.870;12.542;2023-03-02T06:44:59;4.20;1.00
1476;DHT22;730;48.870;12.542;2023-03-02T06:47:25;4.30;1.00
1476;DHT22;730;48.870;12.542;2023-03-02T06:49:51;4.40;1.00
1476;DHT22;730;48.870;12.542;2023-03-02T06:52:17;4.50;1.00
1476;DHT22;730;48.870;12.542;2023-03-02T06:54:43;4.70;1.00
1476;DHT22;730;48.870;12.542;2023-03-02T06:57:09;4.90;1.00
1476;DHT22;730;48.870;12.542;2023-03-02T06:59:35;5.10;1.00
1476;DHT22;730;48.870;12.542;2023-03-02T07:02:02;5.40;1.00
1476;DHT22;730;48.870;12.542;2023-03-02T07:04:28;5.60;1.00
1476;DHT22;730;48.870;12.542;2023-03-02T07:06:54;5.80;1.00
1476;DHT22;730;48.870;12.542;2023-03-02T07:09:20;6.10;1.00
1476;DHT22;730;48.870;12.542;2023-03-02T07:11:48;6.50;1.00
1476;DHT22;730;48.870;12.542;2023-03-02T07:14:14;6.80;1.00
1476;DHT22;730;48.870;12.542;2023-03-02T07:16:40;7.20;1.00
1476;DHT22;730;48.870;12.542;2023-03-02T07:19:10;7.50;1.00
1476;DHT22;730;48.870;12.542;2023-03-02T07:21:37;7.80;1.00
1476;DHT22;730;48.870;12.542;2023-03-02T07:24:04;8.10;1.00
1476;DHT22;730;48.870;12.542;2023-03-02T07:26:30;8.40;1.00
1476;DHT22;730;48.870;12.542;2023-03-02T07:28:56;8.70;1.00
1476;DHT22;730;48.870;12.542;2023-03-02T07:31:25;9.00;1.00
1476;DHT22;730;48.870;12.542;2023-03-02T07:33:51;9.20;1.00
1476;DHT22;730;48.870;12.542;2023-03-02T07:36:17;9.40;1.00
1476;DHT22;730;48.870;12.542;2023-03-02T07:38:43;9.60;1.00
1476;DHT22;730;48.870;12.542;2023-03-02T07:41:09;9.80;1.00
1476;DHT22;730;48.870;12.542;2023-03-02T07:43:36;10.10;1.00
1476;DHT22;730;48.870;12.542;2023-03-02T07:46:03;10.20;1.00
1476;DHT22;730;48.870;12.542;2023-03-02T07:48:30;10.30;1.00
1476;DHT22;730;48.870;12.542;2023-03-02T07:50:59;10.50;1.00
1476;DHT22;730;48.870;12.542;2023-03-02T07:53:26;10.70;1.00
1476;DHT22;730;48.870;12.542;2023-03-02T07:55:53;11.00;1.00
1476;DHT22;730;48.870;12.542;2023-03-02T07:58:19;11.20;1.00
1476;DHT22;730;48.870;12.542;2023-03-02T08:00:47;11.50;1.00
1476;DHT22;730;48.870;12.542;2023-03-02T08:03:13;11.70;1.00
1476;DHT22;730;48.870;12.542;2023-03-02T08:05:39;12.00;1.00
1476;DHT22;730;48.870;12.542;2023-03-02T08:08:05;12.30;1.00
1476;DHT22;730;48.870;12.542;2023-03-02T08:10:33;12.60;1.00
1476;DHT22;730;48.870;12.542;2023-03-02T08:13:00;12.90;1.00
1476;DHT22;730;48.870;12.542;2023-03-02T08:15:26;13.10;1.00
1476;DHT22;730;48.870;12.542;2023-03-02T08:17:53;13.10;1.00
1476;DHT22;730;48.870;12.542;2023-03-02T08:20:19;13.20;1.00
1476;DHT22;730;48.870;12.542;2023-03-02T08:22:45;13.30;1.00
1476;DHT22;730;48.870;12.542;2023-03-02T08:25:11;13.40;1.00
1476;DHT22;730;48.870;12.542;2023-03-02T08:27:37;13.50;1.00
1476;DHT22;730;48.870;12.542;2023-03-02T08:30:07;13.70;1.00
1476;DHT22;730;48.870;12.542;2023-03-02T08:32:33;14.00;1.00
1476;DHT22;730;48.870;12.542;2023-03-02T08:34:59;14.10;1.00
1476;DHT22;730;48.870;12.542;2023-03-02T08:37:25;14.20;1.00
1476;DHT22;730;48.870;12.542;2023-03-02T08:39:51;14.40;1.00
1476;DHT22;730;48.870;12.542;2023-03-02T08:42:17;14.40;1.00
1476;DHT22;730;48.870;12.542;2023-03-02T08:44:43;14.50;1.00
1476;DHT22;730;48.870;12.542;2023-03-02T08:47:09;14.70;1.00
1476;DHT22;730;48.870;12.542;2023-03-02T08:49:36;14.80;1.00
1476;DHT22;730;48.870;12.542;2023-03-02T08:52:05;15.00;1.00
1476;DHT22;730;48.870;12.542;2023-03-02T08:54:32;15.10;1.00
1476;DHT22;730;48.870;12.542;2023-03-02T08:57:00;15.40;1.00
1476;DHT22;730;48.870;12.542;2023-03-02T08:59:26;15.70;1.00
1476;DHT22;730;48.870;12.542;2023-03-02T09:01:53;15.90;1.00
1476;DHT22;730;48.870;12.542;2023-03-02T09:04:19;16.10;1.00
1476;DHT22;730;48.870;12.542;2023-03-02T09:06:45;16.30;1.00
1476;DHT22;730;48.870;12.542;2023-03-02T09:09:13;16.50;1.00
1476;DHT22;730;48.870;12.542;2023-03-02T09:11:40;16.50;1.00
1476;DHT22;730;48.870;12.542;2023-03-02T09:14:07;16.60;1.00
1476;DHT22;730;48.870;12.542;2023-03-02T09:16:33;16.70;1.00
1476;DHT22;730;48.870;12.542;2023-03-02T09:18:59;16.90;1.00
1476;DHT22;730;48.870;12.542;2023-03-02T09:21:25;17.00;1.00
1476;DHT22;730;48.870;12.542;2023-03-02T09:23:51;17.10;1.00
1476;DHT22;730;48.870;12.542;2023-03-02T09:26:21;17.20;1.00
1476;DHT22;730;48.870;12.542;2023-03-02T09:28:47;17.30;1.00
1476;DHT22;730;48.870;12.542;2023-03-02T09:31:13;17.40;1.00
1476;DHT22;730;48.870;12.542;2023-03-02T09:33:39;17.50;1.00
1476;DHT22;730;48.870;12.542;2023-03-02T09:36:09;17.60;1.00
1476;DHT22;730;48.870;12.542;2023-03-02T09:38:36;17.60;1.00
1476;DHT22;730;48.870;12.542;2023-03-02T09:47:11;18.00;1.00
1476;DHT22;730;48.870;12.542;2023-03-02T09:54:44;17.80;1.00
1476;DHT22;730;48.870;12.542;2023-03-02T09:57:20;17.70;1.00
1476;DHT22;730;48.870;12.542;2023-03-02T10:00:00;17.60;1.00
1476;DHT22;730;48.870;12.542;2023-03-02T10:02:45;17.50;1.00
1476;DHT22;730;48.870;12.542;2023-03-02T10:05:19;17.50;1.00
1476;DHT22;730;48.870;12.542;2023-03-02T10:07:47;17.60;1.00
1476;DHT22;730;48.870;12.542;2023-03-02T10:18:27;17.40;1.00
1476;DHT22;730;48.870;12.542;2023-03-02T10:23:45;17.60;1.00
1476;DHT22;730;48.870;12.542;2023-03-02T10:26:20;17.70;1.00
1476;DHT22;730;48.870;12.542;2023-03-02T10:28:53;17.60;1.00
1476;DHT22;730;48.870;12.542;2023-03-02T10:31:32;17.40;1.00
1476;DHT22;730;48.870;12.542;2023-03-02T10:33:59;17.30;1.00
1476;DHT22;730;48.870;12.542;2023-03-02T10:36:28;17.20;1.00
1476;DHT22;730;48.870;12.542;2023-03-02T10:38:56;17.10;1.00
1476;DHT22;730;48.870;12.542;2023-03-02T10:41:35;16.90;1.00
1476;DHT22;730;48.870;12.542;2023-03-02T10:44:13;16.80;1.00
1476;DHT22;730;48.870;12.542;2023-03-02T10:46:42;16.50;1.00
1476;DHT22;730;48.870;12.542;2023-03-02T10:49:27;16.30;1.00
1476;DHT22;730;48.870;12.542;2023-03-02T10:51:55;16.30;1.00
1476;DHT22;730;48.870;12.542;2023-03-02T10:54:21;16.20;1.00
1476;DHT22;730;48.870;12.542;2023-03-02T10:56:50;16.00;1.00
1476;DHT22;730;48.870;12.542;2023-03-02T10:59:46;16.00;1.00
1476;DHT22;730;48.870;12.542;2023-03-02T11:02:24;16.00;1.00
1476;DHT22;730;48.870;12.542;2023-03-02T11:04:57;15.90;1.00
1476;DHT22;730;48.870;12.542;2023-03-02T11:07:26;16.00;1.00
1476;DHT22;730;48.870;12.542;2023-03-02T11:10:16;15.80;1.00
1476;DHT22;730;48.870;12.542;2023-03-02T11:12:46;15.90;1.00
1476;DHT22;730;48.870;12.542;2023-03-02T11:15:23;15.90;1.00
1476;DHT22;730;48.870;12.542;2023-03-02T11:18:22;15.90;1.00
1476;DHT22;730;48.870;12.542;2023-03-02T11:20:52;16.00;1.00
1476;DHT22;730;48.870;12.542;2023-03-02T11:23:40;16.00;1.00
1476;DHT22;730;48.870;12.542;2023-03-02T11:26:25;16.00;1.00
1476;DHT22;730;48.870;12.542;2023-03-02T11:29:02;16.20;1.00
1476;DHT22;730;48.870;12.542;2023-03-02T11:31:37;16.30;1.00
1476;DHT22;730;48.870;12.542;2023-03-02T11:34:37;16.40;1.00
1476;DHT22;730;48.870;12.542;2023-03-02T11:37:11;16.60;1.00
1476;DHT22;730;48.870;12.542;2023-03-02T11:42:22;16.90;1.00
1476;DHT22;730;48.870;12.542;2023-03-02T11:44:50;17.10;1.00
1476;DHT22;730;48.870;12.542;2023-03-02T11:47:17;17.30;1.00
1476;DHT22;730;48.870;12.542;2023-03-02T11:49:53;17.40;1.00
1476;DHT22;730;48.870;12.542;2023-03-02T11:52:23;17.50;1.00
1476;DHT22;730;48.870;12.542;2023-03-02T11:55:02;17.50;1.00
1476;DHT22;730;48.870;12.542;2023-03-02T11:57:36;17.60;1.00
1476;DHT22;730;48.870;12.542;2023-03-02T12:00:11;17.80;1.00
1476;DHT22;730;48.870;12.542;2023-03-02T12:02:39;17.90;1.00
1476;DHT22;730;48.870;12.542;2023-03-02T12:05:26;17.90;1.00
1476;DHT22;730;48.870;12.542;2023-03-02T12:08:28;17.90;1.00
1476;DHT22;730;48.870;12.542;2023-03-02T12:13:44;18.30;1.00
1476;DHT22;730;48.870;12.542;2023-03-02T12:16:36;18.50;1.00
1476;DHT22;730;48.870;12.542;2023-03-02T12:19:25;18.70;1.00
1476;DHT22;730;48.870;12.542;2023-03-02T12:21:59;18.70;1.00
1476;DHT22;730;48.870;12.542;2023-03-02T12:24:31;18.80;1.00
1476;DHT22;730;48.870;12.542;2023-03-02T12:32:39;19.20;1.00
1476;DHT22;730;48.870;12.542;2023-03-02T12:37:50;19.40;1.00
1476;DHT22;730;48.870;12.542;2023-03-02T12:40:52;19.20;1.00
1476;DHT22;730;48.870;12.542;2023-03-02T12:43:36;19.10;1.00
1476;DHT22;730;48.870;12.542;2023-03-02T12:51:53;19.30;1.00
1476;DHT22;730;48.870;12.542;2023-03-02T12:54:31;19.40;1.00
1476;DHT22;730;48.870;12.542;2023-03-02T12:57:06;19.50;1.00
1476;DHT22;730;48.870;12.542;2023-03-02T12:59:34;19.60;1.00
1476;DHT22;730;48.870;12.542;2023-03-02T13:02:17;19.70;1.00
1476;DHT22;730;48.870;12.542;2023-03-02T13:04:43;19.70;1.00
1476;DHT22;730;48.870;12.542;2023-03-02T13:07:18;19.80;1.00
1476;DHT22;730;48.870;12.542;2023-03-02T13:09:49;20.00;1.00
1476;DHT22;730;48.870;12.542;2023-03-02T13:12:15;20.20;1.00
1476;DHT22;730;48.870;12.542;2023-03-02T13:14:44;20.30;1.00
1476;DHT22;730;48.870;12.542;2023-03-02T13:17:27;20.30;1.00
1476;DHT22;730;48.870;12.542;2023-03-02T13:19:57;20.40;1.00
1476;DHT22;730;48.870;12.542;2023-03-02T13:22:24;20.50;1.00
1476;DHT22;730;48.870;12.542;2023-03-02T13:25:01;20.60;1.00
1476;DHT22;730;48.870;12.542;2023-03-02T13:27:28;20.70;1.00
1476;DHT22;730;48.870;12.542;2023-03-02T13:30:10;20.90;1.00
1476;DHT22;730;48.870;12.542;2023-03-02T13:32:40;21.00;1.00
1476;DHT22;730;48.870;12.542;2023-03-02T13:35:33;21.20;1.00
1476;DHT22;730;48.870;12.542;2023-03-02T13:38:14;21.50;1.00
1476;DHT22;730;48.870;12.542;2023-03-02T13:40:49;21.60;1.00
1476;DHT22;730;48.870;12.542;2023-03-02T13:43:33;21.70;1.00
1476;DHT22;730;48.870;12.542;2023-03-02T13:48:28;21.70;1.00
1476;DHT22;730;48.870;12.542;2023-03-02T13:51:00;21.80;1.00
1476;DHT22;730;48.870;12.542;2023-03-02T13:53:27;21.90;1.00
1476;DHT22;730;48.870;12.542;2023-03-02T13:55:55;22.10;1.00
1476;DHT22;730;48.870;12.542;2023-03-02T13:58:23;22.20;1.00
1476;DHT22;730;48.870;12.542;2023-03-02T14:00:50;22.40;1.00
1476;DHT22;730;48.870;12.542;2023-03-02T14:05:47;22.80;1.00
1476;DHT22;730;48.870;12.542;2023-03-02T14:08:13;22.90;1.00
1476;DHT22;730;48.870;12.542;2023-03-02T14:10:40;23.00;1.00
1476;DHT22;730;48.870;12.542;2023-03-02T14:13:13;22.90;1.00
1476;DHT22;730;48.870;12.542;2023-03-02T14:18:48;23.10;1.00
1476;DHT22;730;48.870;12.542;2023-03-02T14:21:17;23.40;1.00
1476;DHT22;730;48.870;12.542;2023-03-02T14:23:44;23.80;1.00
1476;DHT22;730;48.870;12.542;2023-03-02T14:29:11;24.50;1.00
1476;DHT22;730;48.870;12.542;2023-03-02T14:31:40;24.80;1.00
1476;DHT22;730;48.870;12.542;2023-03-02T14:34:11;24.90;1.00
1476;DHT22;730;48.870;12.542;2023-03-02T14:36:38;25.10;1.00
1476;DHT22;730;48.870;12.542;2023-03-02T14:39:31;25.40;1.00
1476;DHT22;730;48.870;12.542;2023-03-02T14:41:58;25.80;1.00
1476;DHT22;730;48.870;12.542;2023-03-02T14:44:30;26.20;1.00
1476;DHT22;730;48.870;12.542;2023-03-02T14:46:56;26.60;1.00
1476;DHT22;730;48.870;12.542;2023-03-02T14:49:23;27.10;1.00
1476;DHT22;730;48.870;12.542;2023-03-02T14:54:41;28.20;1.00
1476;DHT22;730;48.870;12.542;2023-03-02T14:57:20;28.70;1.00
1476;DHT22;730;48.870;12.542;2023-03-02T14:59:47;29.30;1.00
1476;DHT22;730;48.870;12.542;2023-03-02T15:02:14;30.00;1.00
1476;DHT22;730;48.870;12.542;2023-03-02T15:04:40;30.80;1.00
1476;DHT22;730;48.870;12.542;2023-03-02T15:07:10;31.50;1.00
1476;DHT22;730;48.870;12.542;2023-03-02T15:09:38;32.30;1.00
1476;DHT22;730;48.870;12.542;2023-03-02T15:12:05;33.20;1.00
1476;DHT22;730;48.870;12.542;2023-03-02T15:14:31;33.90;1.00
1476;DHT22;730;48.870;12.542;2023-03-02T15:16:57;34.50;1.00
1476;DHT22;730;48.870;12.542;2023-03-02T15:19:23;34.70;1.00
1476;DHT22;730;48.870;12.542;2023-03-02T15:21:49;34.90;1.00
1476;DHT22;730;48.870;12.542;2023-03-02T15:24:18;35.10;1.00
1476;DHT22;730;48.870;12.542;2023-03-02T15:27:10;35.50;1.00
1476;DHT22;730;48.870;12.542;2023-03-02T15:29:43;35.70;1.00
1476;DHT22;730;48.870;12.542;2023-03-02T15:32:09;35.80;1.00
1476;DHT22;730;48.870;12.542;2023-03-02T15:34:36;35.80;1.00
1476;DHT22;730;48.870;12.542;2023-03-02T15:37:02;35.70;1.00
1476;DHT22;730;48.870;12.542;2023-03-02T15:39:30;35.50;1.00
1476;DHT22;730;48.870;12.542;2023-03-02T15:42:00;35.40;1.00
1476;DHT22;730;48.870;12.542;2023-03-02T15:44:26;35.30;1.00
1476;DHT22;730;48.870;12.542;2023-03-02T15:46:56;35.30;1.00
1476;DHT22;730;48.870;12.542;2023-03-02T15:49:23;35.20;1.00
1476;DHT22;730;48.870;12.542;2023-03-02T15:51:54;35.00;1.00
1476;DHT22;730;48.870;12.542;2023-03-02T15:54:23;34.70;1.00
1476;DHT22;730;48.870;12.542;2023-03-02T15:56:49;34.40;1.00
1476;DHT22;730;48.870;12.542;2023-03-02T15:59:22;33.90;1.00
1476;DHT22;730;48.870;12.542;2023-03-02T16:01:49;33.50;1.00
1476;DHT22;730;48.870;12.542;2023-03-02T16:04:15;33.10;1.00
1476;DHT22;730;48.870;12.542;2023-03-02T16:06:44;32.50;1.00
1476;DHT22;730;48.870;12.542;2023-03-02T16:09:11;31.80;1.00
1476;DHT22;730;48.870;12.542;2023-03-02T16:11:37;31.20;1.00
1476;DHT22;730;48.870;12.542;2023-03-02T16:14:06;30.70;1.00
1476;DHT22;730;48.870;12.542;2023-03-02T16:16:40;30.00;1.00
1476;DHT22;730;48.870;12.542;2023-03-02T16:19:10;29.30;1.00
1476;DHT22;730;48.870;12.542;2023-03-02T16:21:37;28.70;1.00
1476;DHT22;730;48.870;12.542;2023-03-02T16:24:08;28.10;1.00
1476;DHT22;730;48.870;12.542;2023-03-02T16:26:37;27.40;1.00
1476;DHT22;730;48.870;12.542;2023-03-02T16:29:04;26.60;1.00
1476;DHT22;730;48.870;12.542;2023-03-02T16:31:33;25.70;1.00
1476;DHT22;730;48.870;12.542;2023-03-02T16:34:03;24.70;1.00
1476;DHT22;730;48.870;12.542;2023-03-02T16:36:34;23.80;1.00
1476;DHT22;730;48.870;12.542;2023-03-02T16:39:04;22.80;1.00
1476;DHT22;730;48.870;12.542;2023-03-02T16:41:30;22.00;1.00
1476;DHT22;730;48.870;12.542;2023-03-02T16:43:57;21.20;1.00
1476;DHT22;730;48.870;12.542;2023-03-02T16:46:26;20.40;1.00
1476;DHT22;730;48.870;12.542;2023-03-02T16:48:52;19.80;1.00
1476;DHT22;730;48.870;12.542;2023-03-02T16:51:20;19.20;1.00
1476;DHT22;730;48.870;12.542;2023-03-02T16:53:46;18.70;1.00
1476;DHT22;730;48.870;12.542;2023-03-02T16:56:13;18.20;1.00
1476;DHT22;730;48.870;12.542;2023-03-02T16:58:41;17.70;1.00
1476;DHT22;730;48.870;12.542;2023-03-02T17:01:13;17.40;1.00
1476;DHT22;730;48.870;12.542;2023-03-02T17:03:40;17.00;1.00
1476;DHT22;730;48.870;12.542;2023-03-02T17:06:08;16.60;1.00
1476;DHT22;730;48.870;12.542;2023-03-02T17:08:44;16.20;1.00
1476;DHT22;730;48.870;12.542;2023-03-02T17:11:10;15.80;1.00
1476;DHT22;730;48.870;12.542;2023-03-02T17:13:36;15.60;1.00
1476;DHT22;730;48.870;12.542;2023-03-02T17:16:03;15.40;1.00
1476;DHT22;730;48.870;12.542;2023-03-02T17:18:30;15.20;1.00
1476;DHT22;730;48.870;12.542;2023-03-02T17:21:02;15.10;1.00
1476;DHT22;730;48.870;12.542;2023-03-02T17:23:28;15.00;1.00
1476;DHT22;730;48.870;12.542;2023-03-02T17:26:01;14.90;1.00
1476;DHT22;730;48.870;12.542;2023-03-02T17:28:28;14.70;1.00
1476;DHT22;730;48.870;12.542;2023-03-02T17:30:54;14.60;1.00
1476;DHT22;730;48.870;12.542;2023-03-02T17:33:20;14.40;1.00
1476;DHT22;730;48.870;12.542;2023-03-02T17:35:46;14.20;1.00
1476;DHT22;730;48.870;12.542;2023-03-02T17:38:13;14.10;1.00
1476;DHT22;730;48.870;12.542;2023-03-02T17:40:40;13.90;1.00